Lebanon Municipal Airport Lebanon US
ICAO: KLEB
IATA: LEB
Category: Medium
Scheduled Services: Yes

Elevation: 603 ft
TransAlt. 18000 ft.

Airport Communications:
BOSTON APP/DEP:134.7
ASOS:118.65
ATIS:118.65
CTAF:125.95
GND:121.6
BANGOR RDO:122.2
TWR:125.95
UNICOM:122.95

KLEB Zoom In..

Runways:

(A) RW 07 length 5496 ft width 100 ft
---- / hdg 75

(B) RW 18 length 5200 ft width 100 ft
ILS 111.90 / hdg 184

(C) RW 25 length 5496 ft width 100 ft
---- / hdg 255

(D) RW 36 length 5200 ft width 100 ft
---- / hdg 4

Location; KLEB
Day. 20 / Time. 16.53 Zulu
* Altimeter: 29.85
* Temperature: 19° c. 66.2°f.
* Wind from: 000° Speed 00 kn.
Dewpoint: 17° c.
Visibility: 3 Statute Miles.
Clouds: Few 300 ft.
Clouds: Broken 1400 ft.
Clouds: Overcast 3300 ft.
Conditions: Light Rain.Conditions: Mist.

KLEB 201653Z 00000KT 3SM -RA BR FEW003 BKN014 OVC033 19/17 A2985 RMK AO2 SLP103 P0000 T01940167


Wind - Calm.

 
 
jpsmedia.com for Web Design SOUNDCLOUD worldairports.se 2018   terms of use